Airport View

Enter AWOS ICAO identifier for current METAR.

ex. KFNL

KFNL 212256Z AUTO 13019G30KT 10SM OVC100 22/01 A2996 RMK AO2 PK WND 13030/2251 SLP100 T02170006

21 Sep 2019 23:24

Frequency: 135.075

Phone: 970-669-9187

Other Area AWOS: KGXY - KLMO - KEIK - KBDU

TAF KBJC 211743Z 2118/2218 16006KT P6SM FEW100 FM212000 05009KT P6SM SCT100 FM220000 03012G20KT P6SM SCT050 OVC080 PROB30 2203/2206 -SHRA BKN050 FM220700 26009KT P6SM BKN050 OVC080 FM221000 21006KT P6SM SCT080 SCT120 FM221600 26006KT P6SM SKC